Essex, Illinois
Current Conditions -  °F | °C
As of 3:35 PM on Sunday 21 Dec 2014 (Local Time) from KIKK Reporting Station
Clear Clear  
Wind Chill: 31°   Ceiling: Unl
Heat Index: 37°   Visibility: 10mi
Dew Point: 31°   Wind: 8mph
Humidity: 80%   Direction: 130°SE
Pressure: 30.11"   Gusts: NA
Location:  41.18°N, 88.19°W
Report Text: KIKK 212135Z AUTO 13007KT 10SM CLR 03/M01 A3011 RMK AO2 T00261006
Loading
Personal Weather Stations






























Interactive Weather Map New forecast layout! Learn more

10-Day Weather Forecast

Advertisements
Track Severe Weather on mobile